SWR77 TNCC-TNCM
Flight info
| Callsign | SWR77 |
|---|---|
| Flight time | 1h 21m |
| Altitude | 41000 |
| Route | SCAPA1K SCAPA L335 MLIZA L204 GOUDA DCT |
| Aircraft | A333/H-SDE3GHIJ2J3J5M1RVWXY/LB2D1 |
Departure
| Time | 2026-05-04 00:10 |
|---|---|
| Airport | Hato International Airport (TNCC) |
Arrival
| Time | 2026-05-04 01:31 |
|---|---|
| Airport | Princess Juliana International Airport (TNCM) |
| Time | Latitude | Longitude | Altitude | Speed | Heading |
|---|---|---|---|---|---|
| 2026-05-03 23:53 | 12.18516 | -68.95726 | 47 ft | 0 kts | 190° |
| 2026-05-04 00:01 | 12.18518 | -68.95726 | 46 ft | 2 kts | 190° |
| 2026-05-04 00:01 | 12.18543 | -68.95719 | 46 ft | 4 kts | 206° |
| 2026-05-04 00:01 | 12.18558 | -68.95710 | 46 ft | 4 kts | 215° |
| 2026-05-04 00:01 | 12.18579 | -68.95692 | 46 ft | 4 kts | 227° |
| 2026-05-04 00:02 | 12.18596 | -68.95671 | 46 ft | 4 kts | 237° |
| 2026-05-04 00:02 | 12.18609 | -68.95647 | 46 ft | 4 kts | 245° |
| 2026-05-04 00:02 | 12.18619 | -68.95621 | 46 ft | 4 kts | 253° |
| 2026-05-04 00:02 | 12.18625 | -68.95594 | 46 ft | 4 kts | 264° |
| 2026-05-04 00:03 | 12.18625 | -68.95573 | 46 ft | 0 kts | 282° |
| 2026-05-04 00:05 | 12.18630 | -68.95598 | 46 ft | 9 kts | 282° |
| 2026-05-04 00:06 | 12.18652 | -68.95694 | 46 ft | 15 kts | 283° |
| 2026-05-04 00:06 | 12.18679 | -68.95811 | 46 ft | 18 kts | 284° |
| 2026-05-04 00:06 | 12.18709 | -68.95944 | 46 ft | 20 kts | 282° |
| 2026-05-04 00:06 | 12.18740 | -68.96089 | 46 ft | 21 kts | 281° |
| 2026-05-04 00:07 | 12.18769 | -68.96234 | 46 ft | 21 kts | 283° |
| 2026-05-04 00:07 | 12.18805 | -68.96384 | 46 ft | 22 kts | 283° |
| 2026-05-04 00:07 | 12.18836 | -68.96532 | 46 ft | 19 kts | 283° |
| 2026-05-04 00:07 | 12.18862 | -68.96654 | 46 ft | 15 kts | 283° |
| 2026-05-04 00:08 | 12.18889 | -68.96726 | 46 ft | 11 kts | 316° |
| 2026-05-04 00:08 | 12.18976 | -68.96744 | 46 ft | 13 kts | 359° |
| 2026-05-04 00:08 | 12.19027 | -68.96728 | 46 ft | 8 kts | 52° |
| 2026-05-04 00:08 | 12.19034 | -68.96677 | 46 ft | 8 kts | 92° |
| 2026-05-04 00:09 | 12.19013 | -68.96540 | 46 ft | 43 kts | 101° |
| 2026-05-04 00:09 | 12.18911 | -68.96041 | 47 ft | 100 kts | 104° |
| 2026-05-04 00:09 | 12.18724 | -68.95170 | 122 ft | 143 kts | 104° |
| 2026-05-04 00:09 | 12.18470 | -68.94136 | 619 ft | 155 kts | 104° |
| 2026-05-04 00:10 | 12.18262 | -68.93029 | 1263 ft | 162 kts | 100° |
| 2026-05-04 00:10 | 12.18060 | -68.91909 | 2001 ft | 163 kts | 100° |
| 2026-05-04 00:10 | 12.17801 | -68.90703 | 2364 ft | 190 kts | 101° |
| 2026-05-04 00:10 | 12.17598 | -68.89229 | 2468 ft | 230 kts | 87° |
| 2026-05-04 00:11 | 12.18101 | -68.87646 | 3275 ft | 235 kts | 60° |
| 2026-05-04 00:11 | 12.19274 | -68.86430 | 4135 ft | 254 kts | 35° |
| 2026-05-04 00:11 | 12.20949 | -68.85739 | 4985 ft | 263 kts | 25° |
| 2026-05-04 00:11 | 12.22689 | -68.85074 | 5786 ft | 271 kts | 24° |
| 2026-05-04 00:12 | 12.24477 | -68.84400 | 6619 ft | 276 kts | 24° |
| 2026-05-04 00:12 | 12.26298 | -68.83721 | 7449 ft | 281 kts | 23° |
| 2026-05-04 00:12 | 12.28151 | -68.83033 | 8247 ft | 286 kts | 23° |
| 2026-05-04 00:12 | 12.30041 | -68.82333 | 9030 ft | 291 kts | 22° |
| 2026-05-04 00:13 | 12.31952 | -68.81627 | 9844 ft | 293 kts | 22° |
| 2026-05-04 00:13 | 12.33904 | -68.80904 | 10432 ft | 308 kts | 22° |
| 2026-05-04 00:13 | 12.36013 | -68.80121 | 10521 ft | 338 kts | 22° |
| 2026-05-04 00:13 | 12.38268 | -68.79284 | 10909 ft | 353 kts | 22° |
| 2026-05-04 00:14 | 12.40571 | -68.78433 | 11891 ft | 352 kts | 22° |
| 2026-05-04 00:14 | 12.42902 | -68.77571 | 12677 ft | 358 kts | 22° |
| 2026-05-04 00:14 | 12.45263 | -68.76698 | 13460 ft | 363 kts | 22° |
| 2026-05-04 00:14 | 12.47653 | -68.75814 | 14234 ft | 367 kts | 22° |
| 2026-05-04 00:15 | 12.50078 | -68.74917 | 14992 ft | 372 kts | 22° |
| 2026-05-04 00:15 | 12.52534 | -68.74009 | 15741 ft | 377 kts | 22° |
| 2026-05-04 00:15 | 12.55027 | -68.73088 | 16468 ft | 382 kts | 22° |
| 2026-05-04 00:15 | 12.57542 | -68.72158 | 17181 ft | 386 kts | 21° |
| 2026-05-04 00:16 | 12.60084 | -68.71218 | 17880 ft | 391 kts | 21° |
| 2026-05-04 00:16 | 12.62629 | -68.70276 | 18575 ft | 395 kts | 21° |
| 2026-05-04 00:16 | 12.65233 | -68.69310 | 19281 ft | 399 kts | 21° |
| 2026-05-04 00:16 | 12.67854 | -68.68338 | 19954 ft | 403 kts | 21° |
| 2026-05-04 00:17 | 12.70505 | -68.67354 | 20619 ft | 406 kts | 20° |
| 2026-05-04 00:17 | 12.73176 | -68.66365 | 21252 ft | 410 kts | 20° |
| 2026-05-04 00:17 | 12.75871 | -68.65367 | 21882 ft | 414 kts | 20° |
| 2026-05-04 00:17 | 12.78605 | -68.64358 | 22415 ft | 419 kts | 20° |
| 2026-05-04 00:18 | 12.81370 | -68.63335 | 22950 ft | 424 kts | 20° |
| 2026-05-04 00:18 | 12.84162 | -68.62300 | 23508 ft | 428 kts | 19° |
| 2026-05-04 00:18 | 12.86974 | -68.61256 | 24108 ft | 430 kts | 19° |
| 2026-05-04 00:18 | 12.89790 | -68.60210 | 24755 ft | 430 kts | 18° |
| 2026-05-04 00:19 | 12.92584 | -68.59177 | 25234 ft | 435 kts | 18° |
| 2026-05-04 00:19 | 12.95451 | -68.58117 | 25739 ft | 438 kts | 18° |
| 2026-05-04 00:19 | 12.98333 | -68.57051 | 26243 ft | 442 kts | 18° |
| 2026-05-04 00:19 | 13.01244 | -68.55974 | 26716 ft | 445 kts | 18° |
| 2026-05-04 00:20 | 13.04172 | -68.54890 | 27197 ft | 448 kts | 18° |
| 2026-05-04 00:20 | 13.07122 | -68.53796 | 27661 ft | 451 kts | 18° |
| 2026-05-04 00:20 | 13.10056 | -68.52709 | 28108 ft | 454 kts | 18° |
| 2026-05-04 00:20 | 13.13052 | -68.51598 | 28561 ft | 457 kts | 18° |
| 2026-05-04 00:21 | 13.16084 | -68.50473 | 29007 ft | 460 kts | 18° |
| 2026-05-04 00:21 | 13.19110 | -68.49350 | 29435 ft | 463 kts | 18° |
| 2026-05-04 00:21 | 13.22151 | -68.48221 | 29855 ft | 466 kts | 18° |
| 2026-05-04 00:21 | 13.25201 | -68.47088 | 30272 ft | 468 kts | 18° |
| 2026-05-04 00:22 | 13.28273 | -68.45947 | 30761 ft | 468 kts | 18° |
| 2026-05-04 00:22 | 13.31340 | -68.44808 | 31341 ft | 466 kts | 18° |
| 2026-05-04 00:22 | 13.34349 | -68.43691 | 31896 ft | 465 kts | 18° |
| 2026-05-04 00:22 | 13.37401 | -68.42557 | 32421 ft | 464 kts | 18° |
| 2026-05-04 00:23 | 13.40432 | -68.41431 | 32941 ft | 462 kts | 18° |
| 2026-05-04 00:23 | 13.43459 | -68.40305 | 33442 ft | 461 kts | 18° |
| 2026-05-04 00:23 | 13.46477 | -68.39184 | 33931 ft | 460 kts | 18° |
| 2026-05-04 00:23 | 13.49450 | -68.38077 | 34404 ft | 459 kts | 18° |
| 2026-05-04 00:24 | 13.52495 | -68.36942 | 34883 ft | 458 kts | 18° |
| 2026-05-04 00:24 | 13.55486 | -68.35827 | 35339 ft | 457 kts | 18° |
| 2026-05-04 00:24 | 13.58446 | -68.34723 | 35773 ft | 456 kts | 18° |
| 2026-05-04 00:24 | 13.61429 | -68.33612 | 36191 ft | 455 kts | 18° |
| 2026-05-04 00:25 | 13.64404 | -68.32503 | 36608 ft | 454 kts | 17° |
| 2026-05-04 00:25 | 13.67370 | -68.31397 | 37016 ft | 453 kts | 17° |
| 2026-05-04 00:25 | 13.70331 | -68.30293 | 37393 ft | 452 kts | 17° |
| 2026-05-04 00:25 | 13.73289 | -68.29190 | 37736 ft | 452 kts | 17° |
| 2026-05-04 00:26 | 13.76244 | -68.28088 | 38087 ft | 451 kts | 17° |
| 2026-05-04 00:26 | 13.79198 | -68.26985 | 38440 ft | 450 kts | 16° |
| 2026-05-04 00:26 | 13.82142 | -68.25887 | 38752 ft | 450 kts | 16° |
| 2026-05-04 00:26 | 13.85087 | -68.24787 | 39052 ft | 449 kts | 16° |
| 2026-05-04 00:27 | 13.88028 | -68.23691 | 39379 ft | 448 kts | 16° |
| 2026-05-04 00:27 | 13.90911 | -68.22616 | 39708 ft | 446 kts | 16° |
| 2026-05-04 00:27 | 13.93817 | -68.21531 | 40054 ft | 443 kts | 16° |
| 2026-05-04 00:27 | 13.96718 | -68.20447 | 40407 ft | 440 kts | 16° |
| 2026-05-04 00:28 | 13.99597 | -68.19371 | 40701 ft | 439 kts | 16° |
| 2026-05-04 00:28 | 14.02466 | -68.18299 | 40894 ft | 439 kts | 17° |
| 2026-05-04 00:28 | 14.08254 | -68.16134 | 40964 ft | 445 kts | 17° |
| 2026-05-04 00:29 | 14.14094 | -68.13948 | 40969 ft | 446 kts | 17° |
| 2026-05-04 00:29 | 14.19875 | -68.11782 | 40969 ft | 442 kts | 17° |
| 2026-05-04 00:30 | 14.25637 | -68.09622 | 40971 ft | 437 kts | 17° |
| 2026-05-04 00:30 | 14.31328 | -68.07488 | 40973 ft | 433 kts | 17° |
| 2026-05-04 00:31 | 14.36985 | -68.05366 | 40976 ft | 432 kts | 17° |
| 2026-05-04 00:31 | 14.42652 | -68.03239 | 40979 ft | 433 kts | 17° |
| 2026-05-04 00:32 | 14.48302 | -68.01118 | 40982 ft | 436 kts | 17° |
| 2026-05-04 00:32 | 14.54028 | -67.98967 | 40984 ft | 439 kts | 17° |
| 2026-05-04 00:33 | 14.62642 | -67.95728 | 40985 ft | 438 kts | 17° |
| 2026-05-04 00:34 | 14.68360 | -67.93576 | 40986 ft | 435 kts | 17° |
| 2026-05-04 00:34 | 14.74000 | -67.91453 | 40988 ft | 433 kts | 17° |
| 2026-05-04 00:35 | 14.79655 | -67.89323 | 40991 ft | 432 kts | 17° |
| 2026-05-04 00:35 | 14.85304 | -67.87193 | 40994 ft | 432 kts | 16° |
| 2026-05-04 00:36 | 14.90961 | -67.85060 | 40996 ft | 433 kts | 17° |
| 2026-05-04 00:36 | 14.96633 | -67.82920 | 40998 ft | 434 kts | 16° |
| 2026-05-04 00:37 | 15.02292 | -67.80784 | 41000 ft | 434 kts | 16° |
| 2026-05-04 00:37 | 15.07971 | -67.78639 | 41001 ft | 434 kts | 16° |
| 2026-05-04 00:38 | 15.13644 | -67.76495 | 41003 ft | 433 kts | 16° |
| 2026-05-04 00:38 | 15.19299 | -67.74355 | 41008 ft | 432 kts | 16° |
| 2026-05-04 00:39 | 15.24933 | -67.72224 | 41010 ft | 431 kts | 16° |
| 2026-05-04 00:39 | 15.30537 | -67.70103 | 41012 ft | 431 kts | 16° |
| 2026-05-04 00:40 | 15.36192 | -67.67961 | 41015 ft | 432 kts | 16° |
| 2026-05-04 00:40 | 15.41856 | -67.65814 | 41017 ft | 433 kts | 16° |
| 2026-05-04 00:41 | 15.46558 | -67.64031 | 41018 ft | 433 kts | 16° |
| 2026-05-04 00:41 | 15.52214 | -67.61884 | 41020 ft | 432 kts | 16° |
| 2026-05-04 00:42 | 15.57868 | -67.59738 | 41022 ft | 431 kts | 16° |
| 2026-05-04 00:42 | 15.63494 | -67.57601 | 41024 ft | 430 kts | 16° |
| 2026-05-04 00:43 | 15.69081 | -67.55477 | 41026 ft | 430 kts | 16° |
| 2026-05-04 00:43 | 15.74702 | -67.53339 | 41028 ft | 430 kts | 16° |
| 2026-05-04 00:44 | 15.80289 | -67.51058 | 41025 ft | 435 kts | 25° |
| 2026-05-04 00:44 | 15.82803 | -67.49272 | 41029 ft | 442 kts | 38° |
| 2026-05-04 00:44 | 15.84904 | -67.46907 | 41030 ft | 448 kts | 51° |
| 2026-05-04 00:45 | 15.88492 | -67.41591 | 41034 ft | 450 kts | 52° |
| 2026-05-04 00:45 | 15.91939 | -67.36141 | 41034 ft | 451 kts | 53° |
| 2026-05-04 00:46 | 15.95324 | -67.30697 | 41035 ft | 451 kts | 53° |
| 2026-05-04 00:46 | 15.98719 | -67.25217 | 41036 ft | 450 kts | 53° |
| 2026-05-04 00:47 | 16.02107 | -67.19739 | 41037 ft | 449 kts | 53° |
| 2026-05-04 00:47 | 16.05484 | -67.14272 | 41038 ft | 448 kts | 53° |
| 2026-05-04 00:48 | 16.08854 | -67.08807 | 41045 ft | 448 kts | 53° |
| 2026-05-04 00:48 | 16.12219 | -67.03345 | 41047 ft | 449 kts | 53° |
| 2026-05-04 00:49 | 16.15586 | -66.97870 | 41048 ft | 449 kts | 53° |
| 2026-05-04 00:49 | 16.18933 | -66.92425 | 41049 ft | 449 kts | 53° |
| 2026-05-04 00:50 | 16.22295 | -66.86951 | 41049 ft | 448 kts | 53° |
| 2026-05-04 00:50 | 16.25653 | -66.81476 | 41050 ft | 447 kts | 53° |
| 2026-05-04 00:51 | 16.28979 | -66.76050 | 41051 ft | 447 kts | 53° |
| 2026-05-04 00:51 | 16.32318 | -66.70598 | 41051 ft | 446 kts | 53° |
| 2026-05-04 00:52 | 16.35659 | -66.65140 | 41058 ft | 446 kts | 53° |
| 2026-05-04 00:52 | 16.38991 | -66.59692 | 41060 ft | 446 kts | 53° |
| 2026-05-04 00:53 | 16.42324 | -66.54238 | 41062 ft | 447 kts | 53° |
| 2026-05-04 00:53 | 16.45667 | -66.48764 | 41064 ft | 447 kts | 53° |
| 2026-05-04 00:54 | 16.48998 | -66.43305 | 41065 ft | 446 kts | 53° |
| 2026-05-04 00:54 | 16.52310 | -66.37871 | 41065 ft | 446 kts | 53° |
| 2026-05-04 00:55 | 16.55638 | -66.32408 | 41066 ft | 445 kts | 53° |
| 2026-05-04 00:55 | 16.58961 | -66.26949 | 41066 ft | 445 kts | 53° |
| 2026-05-04 00:56 | 16.62264 | -66.21519 | 41067 ft | 445 kts | 53° |
| 2026-05-04 00:56 | 16.65292 | -66.16537 | 41067 ft | 446 kts | 53° |
| 2026-05-04 00:57 | 16.68588 | -66.11111 | 41068 ft | 446 kts | 53° |
| 2026-05-04 00:57 | 16.71935 | -66.05596 | 41068 ft | 446 kts | 53° |
| 2026-05-04 00:58 | 16.75259 | -66.00115 | 40968 ft | 449 kts | 53° |
| 2026-05-04 00:58 | 16.76934 | -65.97351 | 40722 ft | 453 kts | 53° |
| 2026-05-04 00:58 | 16.78622 | -65.94567 | 40473 ft | 454 kts | 53° |
| 2026-05-04 00:58 | 16.80309 | -65.91780 | 40223 ft | 453 kts | 53° |
| 2026-05-04 00:59 | 16.81985 | -65.89010 | 39972 ft | 450 kts | 53° |
| 2026-05-04 00:59 | 16.83627 | -65.86296 | 39723 ft | 446 kts | 53° |
| 2026-05-04 00:59 | 16.85278 | -65.83563 | 39472 ft | 443 kts | 53° |
| 2026-05-04 00:59 | 16.86918 | -65.80851 | 39220 ft | 440 kts | 53° |
| 2026-05-04 01:00 | 16.88552 | -65.78146 | 38968 ft | 438 kts | 53° |
| 2026-05-04 01:00 | 16.90177 | -65.75454 | 38718 ft | 438 kts | 53° |
| 2026-05-04 01:00 | 16.91802 | -65.72764 | 38468 ft | 438 kts | 53° |
| 2026-05-04 01:00 | 16.93430 | -65.70069 | 38219 ft | 439 kts | 54° |
| 2026-05-04 01:01 | 16.95066 | -65.67358 | 37970 ft | 441 kts | 54° |
| 2026-05-04 01:01 | 16.96682 | -65.64681 | 37726 ft | 443 kts | 54° |
| 2026-05-04 01:01 | 16.98332 | -65.61947 | 37476 ft | 445 kts | 54° |
| 2026-05-04 01:01 | 16.99984 | -65.59206 | 37227 ft | 446 kts | 54° |
| 2026-05-04 01:02 | 17.01638 | -65.56462 | 36978 ft | 447 kts | 55° |
| 2026-05-04 01:02 | 17.03294 | -65.53712 | 36729 ft | 448 kts | 55° |
| 2026-05-04 01:02 | 17.04957 | -65.50950 | 36479 ft | 448 kts | 55° |
| 2026-05-04 01:02 | 17.06615 | -65.48195 | 36229 ft | 448 kts | 55° |
| 2026-05-04 01:03 | 17.08275 | -65.45434 | 35980 ft | 449 kts | 56° |
| 2026-05-04 01:03 | 17.09936 | -65.42672 | 35730 ft | 449 kts | 56° |
| 2026-05-04 01:03 | 17.11599 | -65.39905 | 35480 ft | 449 kts | 56° |
| 2026-05-04 01:03 | 17.13264 | -65.37133 | 35230 ft | 449 kts | 56° |
| 2026-05-04 01:04 | 17.14928 | -65.34362 | 34980 ft | 450 kts | 56° |
| 2026-05-04 01:04 | 17.16592 | -65.31590 | 34731 ft | 451 kts | 56° |
| 2026-05-04 01:04 | 17.18266 | -65.28801 | 34481 ft | 451 kts | 56° |
| 2026-05-04 01:04 | 17.19935 | -65.26018 | 34231 ft | 452 kts | 57° |
| 2026-05-04 01:05 | 17.21605 | -65.23232 | 33982 ft | 453 kts | 57° |
| 2026-05-04 01:05 | 17.23265 | -65.20462 | 33734 ft | 453 kts | 57° |
| 2026-05-04 01:05 | 17.24938 | -65.17667 | 33484 ft | 452 kts | 57° |
| 2026-05-04 01:05 | 17.26612 | -65.14870 | 33233 ft | 451 kts | 57° |
| 2026-05-04 01:06 | 17.28274 | -65.12094 | 32982 ft | 449 kts | 57° |
| 2026-05-04 01:06 | 17.29930 | -65.09324 | 32731 ft | 447 kts | 57° |
| 2026-05-04 01:06 | 17.31576 | -65.06571 | 32480 ft | 445 kts | 57° |
| 2026-05-04 01:06 | 17.33195 | -65.03861 | 32232 ft | 443 kts | 57° |
| 2026-05-04 01:07 | 17.34822 | -65.01136 | 31981 ft | 440 kts | 57° |
| 2026-05-04 01:07 | 17.36441 | -64.98425 | 31729 ft | 437 kts | 57° |
| 2026-05-04 01:07 | 17.38051 | -64.95727 | 31262 ft | 435 kts | 57° |
| 2026-05-04 01:07 | 17.39654 | -64.93039 | 30797 ft | 432 kts | 57° |
| 2026-05-04 01:08 | 17.41241 | -64.90377 | 30334 ft | 429 kts | 57° |
| 2026-05-04 01:08 | 17.42814 | -64.87737 | 29878 ft | 425 kts | 57° |
| 2026-05-04 01:08 | 17.44375 | -64.85116 | 29426 ft | 422 kts | 57° |
| 2026-05-04 01:08 | 17.45902 | -64.82551 | 28980 ft | 418 kts | 57° |
| 2026-05-04 01:09 | 17.47438 | -64.79970 | 28528 ft | 415 kts | 57° |
| 2026-05-04 01:09 | 17.48960 | -64.77411 | 28077 ft | 412 kts | 57° |
| 2026-05-04 01:09 | 17.50471 | -64.74871 | 27626 ft | 409 kts | 57° |
| 2026-05-04 01:09 | 17.51970 | -64.72350 | 27175 ft | 406 kts | 58° |
| 2026-05-04 01:10 | 17.53460 | -64.69842 | 26724 ft | 404 kts | 57° |
| 2026-05-04 01:10 | 17.54937 | -64.67357 | 26274 ft | 401 kts | 57° |
| 2026-05-04 01:10 | 17.56405 | -64.64884 | 25823 ft | 398 kts | 57° |
| 2026-05-04 01:10 | 17.57862 | -64.62430 | 25371 ft | 395 kts | 57° |
| 2026-05-04 01:11 | 17.59311 | -64.59990 | 24919 ft | 392 kts | 57° |
| 2026-05-04 01:11 | 17.60724 | -64.57607 | 24475 ft | 389 kts | 57° |
| 2026-05-04 01:11 | 17.62158 | -64.55189 | 24022 ft | 387 kts | 57° |
| 2026-05-04 01:11 | 17.63574 | -64.52800 | 23570 ft | 384 kts | 57° |
| 2026-05-04 01:12 | 17.64979 | -64.50429 | 23120 ft | 382 kts | 57° |
| 2026-05-04 01:12 | 17.66379 | -64.48066 | 22668 ft | 379 kts | 57° |
| 2026-05-04 01:12 | 17.67766 | -64.45725 | 22218 ft | 377 kts | 57° |
| 2026-05-04 01:12 | 17.69147 | -64.43393 | 21767 ft | 375 kts | 57° |
| 2026-05-04 01:13 | 17.70525 | -64.41064 | 21314 ft | 373 kts | 57° |
| 2026-05-04 01:13 | 17.71890 | -64.38757 | 20864 ft | 372 kts | 57° |
| 2026-05-04 01:13 | 17.73251 | -64.36456 | 20413 ft | 370 kts | 57° |
| 2026-05-04 01:13 | 17.74610 | -64.34157 | 19961 ft | 369 kts | 57° |
| 2026-05-04 01:14 | 17.75943 | -64.31901 | 19516 ft | 367 kts | 57° |
| 2026-05-04 01:14 | 17.77289 | -64.29624 | 19065 ft | 366 kts | 57° |
| 2026-05-04 01:14 | 17.78621 | -64.27356 | 18613 ft | 364 kts | 59° |
| 2026-05-04 01:14 | 17.79753 | -64.24990 | 18162 ft | 363 kts | 66° |
| 2026-05-04 01:15 | 17.80596 | -64.22497 | 17709 ft | 362 kts | 73° |
| 2026-05-04 01:15 | 17.81214 | -64.19943 | 17262 ft | 360 kts | 75° |
| 2026-05-04 01:15 | 17.81823 | -64.17400 | 16811 ft | 358 kts | 76° |
| 2026-05-04 01:15 | 17.82423 | -64.14863 | 16360 ft | 357 kts | 76° |
| 2026-05-04 01:16 | 17.83007 | -64.12367 | 15913 ft | 355 kts | 76° |
| 2026-05-04 01:16 | 17.83590 | -64.09856 | 15465 ft | 353 kts | 76° |
| 2026-05-04 01:16 | 17.84168 | -64.07350 | 15013 ft | 352 kts | 76° |
| 2026-05-04 01:16 | 17.84740 | -64.04862 | 14563 ft | 350 kts | 76° |
| 2026-05-04 01:17 | 17.85310 | -64.02378 | 14111 ft | 348 kts | 76° |
| 2026-05-04 01:17 | 17.85873 | -63.99911 | 13661 ft | 346 kts | 76° |
| 2026-05-04 01:17 | 17.86433 | -63.97457 | 13210 ft | 345 kts | 76° |
| 2026-05-04 01:17 | 17.86989 | -63.95015 | 12760 ft | 343 kts | 76° |
| 2026-05-04 01:18 | 17.87543 | -63.92587 | 12309 ft | 341 kts | 76° |
| 2026-05-04 01:18 | 17.88095 | -63.90172 | 11858 ft | 339 kts | 77° |
| 2026-05-04 01:18 | 17.88638 | -63.87793 | 11412 ft | 337 kts | 77° |
| 2026-05-04 01:18 | 17.89179 | -63.85405 | 10953 ft | 333 kts | 77° |
| 2026-05-04 01:19 | 17.89687 | -63.83166 | 10435 ft | 301 kts | 77° |
| 2026-05-04 01:19 | 17.90164 | -63.81057 | 9944 ft | 299 kts | 77° |
| 2026-05-04 01:19 | 17.90645 | -63.78932 | 9658 ft | 285 kts | 77° |
| 2026-05-04 01:19 | 17.91097 | -63.76932 | 9594 ft | 281 kts | 77° |
| 2026-05-04 01:20 | 17.91546 | -63.74942 | 9391 ft | 279 kts | 77° |
| 2026-05-04 01:20 | 17.91987 | -63.72991 | 9065 ft | 277 kts | 77° |
| 2026-05-04 01:20 | 17.92431 | -63.71029 | 8724 ft | 275 kts | 77° |
| 2026-05-04 01:20 | 17.92870 | -63.69085 | 8386 ft | 272 kts | 77° |
| 2026-05-04 01:21 | 17.93305 | -63.67156 | 8050 ft | 270 kts | 78° |
| 2026-05-04 01:21 | 17.93713 | -63.65238 | 7717 ft | 268 kts | 78° |
| 2026-05-04 01:21 | 17.94125 | -63.63337 | 7386 ft | 266 kts | 78° |
| 2026-05-04 01:21 | 17.94534 | -63.61453 | 7057 ft | 263 kts | 78° |
| 2026-05-04 01:22 | 17.94939 | -63.59586 | 6733 ft | 261 kts | 78° |
| 2026-05-04 01:22 | 17.95339 | -63.57736 | 6419 ft | 258 kts | 78° |
| 2026-05-04 01:22 | 17.95736 | -63.55901 | 6051 ft | 258 kts | 78° |
| 2026-05-04 01:22 | 17.95999 | -63.54687 | 5811 ft | 258 kts | 78° |
| 2026-05-04 01:23 | 17.96396 | -63.52851 | 5484 ft | 256 kts | 78° |
| 2026-05-04 01:23 | 17.96788 | -63.51037 | 5167 ft | 253 kts | 78° |
| 2026-05-04 01:23 | 17.97301 | -63.48660 | 4751 ft | 250 kts | 78° |
| 2026-05-04 01:23 | 17.97560 | -63.47462 | 4535 ft | 245 kts | 78° |
| 2026-05-04 01:24 | 17.98025 | -63.45312 | 4147 ft | 215 kts | 78° |
| 2026-05-04 01:24 | 17.98249 | -63.44273 | 3969 ft | 219 kts | 78° |
| 2026-05-04 01:24 | 17.98588 | -63.42699 | 3682 ft | 222 kts | 78° |
| 2026-05-04 01:24 | 17.98928 | -63.41117 | 3402 ft | 222 kts | 78° |
| 2026-05-04 01:25 | 17.99264 | -63.39558 | 3128 ft | 221 kts | 78° |
| 2026-05-04 01:25 | 17.99605 | -63.37979 | 2951 ft | 215 kts | 78° |
| 2026-05-04 01:25 | 17.99923 | -63.36502 | 2873 ft | 205 kts | 78° |
| 2026-05-04 01:25 | 18.00231 | -63.35071 | 2789 ft | 196 kts | 79° |
| 2026-05-04 01:26 | 18.00523 | -63.33711 | 2706 ft | 186 kts | 79° |
| 2026-05-04 01:26 | 18.00801 | -63.32419 | 2631 ft | 176 kts | 79° |
| 2026-05-04 01:26 | 18.01063 | -63.31200 | 2610 ft | 168 kts | 79° |
| 2026-05-04 01:26 | 18.01319 | -63.30005 | 2613 ft | 168 kts | 79° |
| 2026-05-04 01:27 | 18.01487 | -63.28801 | 2613 ft | 166 kts | 82° |
| 2026-05-04 01:27 | 18.01674 | -63.27597 | 2548 ft | 170 kts | 82° |
| 2026-05-04 01:27 | 18.01866 | -63.26317 | 2163 ft | 182 kts | 82° |
| 2026-05-04 01:27 | 18.02062 | -63.24997 | 1941 ft | 181 kts | 82° |
| 2026-05-04 01:28 | 18.02251 | -63.23717 | 1796 ft | 172 kts | 82° |
| 2026-05-04 01:28 | 18.02424 | -63.22531 | 1719 ft | 154 kts | 82° |
| 2026-05-04 01:28 | 18.02577 | -63.21487 | 1719 ft | 137 kts | 82° |
| 2026-05-04 01:28 | 18.02687 | -63.20499 | 1692 ft | 137 kts | 85° |
| 2026-05-04 01:29 | 18.02841 | -63.19488 | 1494 ft | 141 kts | 82° |
| 2026-05-04 01:29 | 18.02989 | -63.18499 | 1283 ft | 135 kts | 81° |
| 2026-05-04 01:29 | 18.03131 | -63.17541 | 1103 ft | 131 kts | 81° |
| 2026-05-04 01:29 | 18.03270 | -63.16593 | 934 ft | 131 kts | 81° |
| 2026-05-04 01:30 | 18.03408 | -63.15647 | 756 ft | 130 kts | 81° |
| 2026-05-04 01:30 | 18.03545 | -63.14709 | 568 ft | 130 kts | 81° |
| 2026-05-04 01:30 | 18.03681 | -63.13759 | 323 ft | 131 kts | 81° |
| 2026-05-04 01:30 | 18.03818 | -63.12828 | 222 ft | 127 kts | 81° |
| 2026-05-04 01:31 | 18.03958 | -63.11921 | 42 ft | 121 kts | 81° |
| 2026-05-04 01:31 | 18.04049 | -63.11203 | 31 ft | 73 kts | 81° |
| 2026-05-04 01:31 | 18.04104 | -63.10843 | 31 ft | 37 kts | 84° |
| 2026-05-04 01:31 | 18.04125 | -63.10603 | 31 ft | 31 kts | 86° |
| 2026-05-04 01:32 | 18.03935 | -63.12080 | 73 ft | 123 kts | 81° |
| 2026-05-04 01:32 | 18.04037 | -63.11298 | 31 ft | 81 kts | 83° |
| 2026-05-04 01:32 | 18.04099 | -63.10890 | 31 ft | 39 kts | 83° |
| 2026-05-04 01:32 | 18.04127 | -63.10578 | 31 ft | 31 kts | 87° |
| 2026-05-04 01:33 | 18.03968 | -63.11845 | 34 ft | 119 kts | 82° |
| 2026-05-04 01:33 | 18.04056 | -63.11152 | 31 ft | 66 kts | 80° |
| 2026-05-04 01:33 | 18.04106 | -63.10817 | 31 ft | 35 kts | 84° |